Time;durP1;ratioP1;P1;durP2;ratioP2;P2;SDS_P1;SDS_P2;PMS_P1;PMS_P2;Temp;Humidity;BMP_temperature;BMP_pressure;BME280_temperature;BME280_humidity;BME280_pressure;Samples;Min_cycle;Max_cycle;Signal;HPM_P1;HPM_P2
2023/10/06 00:01:43;;;;;;;12.70;4.72;;;14.20;99.90;;;;;;5072402;28;20097;-59
2023/10/06 00:04:12;;;;;;;13.40;4.18;;;14.20;99.90;;;;;;5072144;28;20049;-59
2023/10/06 00:06:41;;;;;;;11.57;4.18;;;14.10;99.90;;;;;;5072233;28;20084;-58
2023/10/06 00:09:19;;;;;;;14.18;4.03;;;14.20;99.90;;;;;;5072053;28;20036;-59
2023/10/06 00:11:46;;;;;;;12.52;3.85;;;14.20;99.90;;;;;;5072204;28;20385;-59
2023/10/06 00:16:57;;;;;;;11.75;4.45;;;14.10;99.90;;;;;;5072329;28;20078;-59
2023/10/06 00:19:31;;;;;;;10.00;3.58;;;14.10;99.90;;;;;;5071806;28;20637;-59
2023/10/06 00:24:31;;;;;;;10.75;3.70;;;14.10;99.90;;;;;;5078640;28;20052;-59
2023/10/06 00:26:58;;;;;;;9.95;3.60;;;14.10;99.90;;;;;;5077276;28;20044;-59
2023/10/06 00:29:24;;;;;;;12.93;4.50;;;14.10;99.90;;;;;;5078398;28;20040;-59
2023/10/06 00:31:50;;;;;;;10.70;3.80;;;14.10;99.90;;;;;;5078456;28;20049;-58
2023/10/06 00:34:19;;;;;;;12.68;3.53;;;14.10;99.90;;;;;;5078460;28;20051;-59
2023/10/06 00:36:55;;;;;;;10.95;4.18;;;14.10;99.90;;;;;;5078435;28;20080;-59
2023/10/06 00:39:23;;;;;;;14.32;4.07;;;14.10;99.90;;;;;;5078465;28;20064;-59
2023/10/06 00:42:04;;;;;;;11.75;3.75;;;14.20;99.90;;;;;;5078452;28;20145;-59
2023/10/06 00:44:30;;;;;;;13.40;4.82;;;14.10;99.90;;;;;;5078636;28;20748;-59
2023/10/06 00:46:59;;;;;;;10.90;3.90;;;14.20;99.90;;;;;;5078606;28;20040;-59
2023/10/06 00:49:28;;;;;;;13.48;4.05;;;14.20;99.90;;;;;;5078557;28;20170;-59
2023/10/06 00:51:55;;;;;;;10.82;3.60;;;14.20;99.90;;;;;;5078242;28;20531;-58
2023/10/06 00:54:25;;;;;;;11.40;3.58;;;14.20;99.90;;;;;;5078153;28;20119;-58
2023/10/06 00:56:58;;;;;;;10.70;4.00;;;14.10;99.90;;;;;;5078268;28;20040;-59
2023/10/06 00:59:26;;;;;;;8.13;3.83;;;14.20;99.90;;;;;;5078244;28;20519;-60
2023/10/06 01:01:55;;;;;;;11.27;3.90;;;14.10;99.90;;;;;;5078531;28;20429;-59
2023/10/06 01:04:25;;;;;;;10.45;4.20;;;14.20;99.90;;;;;;5078283;28;20052;-59
2023/10/06 01:06:54;;;;;;;11.52;4.50;;;14.10;99.90;;;;;;5078142;28;20513;-59
2023/10/06 01:09:30;;;;;;;13.85;4.75;;;14.20;99.90;;;;;;5078178;28;20048;-49
2023/10/06 01:11:57;;;;;;;11.65;3.92;;;14.10;99.90;;;;;;5078406;28;20044;-47
2023/10/06 01:14:27;;;;;;;13.20;4.40;;;14.10;99.90;;;;;;5078119;28;20630;-50
2023/10/06 01:17:08;;;;;;;15.05;4.60;;;14.20;99.90;;;;;;5078156;28;20048;-48
2023/10/06 01:19:34;;;;;;;14.38;4.35;;;14.20;99.90;;;;;;5078054;28;20076;-49
2023/10/06 01:24:45;;;;;;;9.57;4.30;;;14.20;99.90;;;;;;5078258;28;20118;-49
2023/10/06 01:27:11;;;;;;;9.70;3.67;;;14.20;99.90;;;;;;5077966;28;20860;-49
2023/10/06 01:29:38;;;;;;;13.60;3.90;;;14.20;99.90;;;;;;5078475;28;20406;-48
2023/10/06 01:32:05;;;;;;;11.82;4.40;;;14.20;99.90;;;;;;5077942;28;20106;-48
2023/10/06 01:34:38;;;;;;;12.00;4.57;;;14.20;99.90;;;;;;5074027;28;20094;-47
2023/10/06 01:37:11;;;;;;;14.23;4.53;;;14.30;99.90;;;;;;5074887;28;20449;-49
2023/10/06 01:39:37;;;;;;;12.90;4.30;;;14.20;99.90;;;;;;5074690;28;20059;-47
2023/10/06 01:42:07;;;;;;;14.35;4.50;;;14.20;99.90;;;;;;5074864;28;20033;-45
2023/10/06 01:44:34;;;;;;;13.68;4.35;;;14.30;99.90;;;;;;5074503;28;20443;-45
2023/10/06 01:47:04;;;;;;;15.27;5.03;;;14.30;99.90;;;;;;5074468;28;20044;-46
2023/10/06 01:49:31;;;;;;;9.82;4.20;;;14.30;99.90;;;;;;5074590;28;20032;-47
2023/10/06 01:51:57;;;;;;;11.88;4.75;;;14.30;99.90;;;;;;5074665;28;20028;-59
2023/10/06 01:54:27;;;;;;;10.45;4.70;;;14.30;99.90;;;;;;5073453;28;20538;-59
2023/10/06 01:56:54;;;;;;;15.20;5.10;;;14.30;99.90;;;;;;5074442;28;20048;-59
2023/10/06 01:59:20;;;;;;;16.17;4.82;;;14.30;99.90;;;;;;5074280;28;20051;-59
2023/10/06 02:01:47;;;;;;;13.65;4.50;;;14.30;99.90;;;;;;5074182;28;20040;-59
2023/10/06 02:04:19;;;;;;;11.95;5.53;;;14.30;99.90;;;;;;5074519;28;20037;-59
2023/10/06 02:06:45;;;;;;;11.45;5.20;;;14.30;99.90;;;;;;5074217;28;20045;-59
2023/10/06 02:09:20;;;;;;;11.90;5.38;;;14.30;99.90;;;;;;5074448;28;20033;-58
2023/10/06 02:11:49;;;;;;;9.80;5.00;;;14.30;99.90;;;;;;5074292;28;20107;-59
2023/10/06 02:14:18;;;;;;;17.83;6.72;;;14.30;99.90;;;;;;5074236;28;20497;-59
2023/10/06 02:16:49;;;;;;;12.55;5.38;;;14.30;99.90;;;;;;5074142;28;20048;-59
2023/10/06 02:19:18;;;;;;;12.90;6.00;;;14.30;99.90;;;;;;5074236;28;20052;-46
2023/10/06 02:21:54;;;;;;;12.98;5.40;;;14.30;99.90;;;;;;5072894;28;20278;-46
2023/10/06 02:24:20;;;;;;;14.85;5.97;;;14.30;99.90;;;;;;5073933;28;20036;-49
2023/10/06 02:27:09;;;;;;;19.27;6.72;;;14.30;99.90;;;;;;5073913;28;20048;-44
2023/10/06 02:29:32;;;;;;;15.27;6.88;;;14.30;99.90;;;;;;5073501;28;20049;-46
2023/10/06 02:32:01;;;;;;;15.35;6.38;;;14.30;99.90;;;;;;5073695;28;20366;-46
2023/10/06 02:34:32;;;;;;;12.18;5.55;;;14.30;99.90;;;;;;5073742;28;20032;-47
2023/10/06 02:37:00;;;;;;;16.13;5.70;;;14.30;99.90;;;;;;5073686;28;20040;-46
2023/10/06 02:39:28;;;;;;;17.63;6.20;;;14.30;99.90;;;;;;5072239;28;20077;-44
2023/10/06 02:41:57;;;;;;;13.50;6.03;;;14.20;99.90;;;;;;5073495;28;20503;-59
2023/10/06 02:44:26;;;;;;;14.02;5.75;;;14.20;99.90;;;;;;5073030;28;20071;-58
2023/10/06 02:46:52;;;;;;;15.43;6.13;;;14.20;99.90;;;;;;5073354;28;20451;-59
2023/10/06 02:49:31;;;;;;;11.95;6.50;;;14.20;99.90;;;;;;5073224;28;20047;-59
2023/10/06 02:52:01;;;;;;;14.25;5.82;;;14.20;99.90;;;;;;5073328;28;20488;-59
2023/10/06 02:54:30;;;;;;;15.60;6.22;;;14.20;99.90;;;;;;5073440;28;20045;-59
2023/10/06 02:56:56;;;;;;;20.58;7.13;;;14.20;99.90;;;;;;5073430;28;20044;-59
2023/10/06 02:59:26;;;;;;;14.55;6.63;;;14.20;99.90;;;;;;5073023;28;20048;-58
2023/10/06 03:02:00;;;;;;;13.95;5.93;;;14.20;99.90;;;;;;5072086;28;20476;-46
2023/10/06 03:04:27;;;;;;;14.30;6.10;;;14.20;99.90;;;;;;5073295;28;20045;-47
2023/10/06 03:06:58;;;;;;;12.35;5.70;;;14.20;99.90;;;;;;5071984;28;20110;-48
2023/10/06 03:09:35;;;;;;;16.80;6.60;;;14.20;99.90;;;;;;5073222;28;20396;-48
2023/10/06 03:12:10;;;;;;;16.00;6.60;;;14.20;99.90;;;;;;5072892;28;20048;-46
2023/10/06 03:14:39;;;;;;;14.43;5.78;;;14.20;99.90;;;;;;5073092;28;20082;-50
2023/10/06 03:17:09;;;;;;;12.57;5.82;;;14.20;99.90;;;;;;5073020;28;20162;-58
2023/10/06 03:19:40;;;;;;;15.27;6.45;;;14.20;99.90;;;;;;5072771;28;20044;-59
2023/10/06 03:22:09;;;;;;;13.02;6.15;;;14.20;99.90;;;;;;5072596;28;20550;-59
2023/10/06 03:24:41;;;;;;;18.20;6.57;;;14.20;99.90;;;;;;5072904;28;20040;-59
2023/10/06 03:27:12;;;;;;;15.70;7.03;;;14.20;99.90;;;;;;5072574;28;20678;-59
2023/10/06 03:29:55;;;;;;;18.45;6.63;;;14.20;99.90;;;;;;5072890;28;20044;-59
2023/10/06 03:32:32;;;;;;;15.75;6.65;;;14.20;99.90;;;;;;5071202;28;20059;-59
2023/10/06 03:35:05;;;;;;;16.77;6.65;;;14.10;99.90;;;;;;5072746;28;20036;-59
2023/10/06 03:38:36;;;;;;;16.65;6.80;;;14.10;99.90;;;;;;5072453;28;20260;-59
2023/10/06 03:40:42;;;;;;;15.55;6.75;;;14.10;99.90;;;;;;5067420;28;20447;-59
2023/10/06 03:43:12;;;;;;;15.60;7.20;;;14.10;99.90;;;;;;5072474;28;20110;-59
2023/10/06 03:45:40;;;;;;;16.80;6.85;;;14.10;99.90;;;;;;5072509;28;20124;-59
2023/10/06 03:48:12;;;;;;;13.48;6.95;;;14.00;99.90;;;;;;5072517;28;20050;-59
2023/10/06 03:50:40;;;;;;;20.58;8.02;;;14.00;99.90;;;;;;5072433;28;20388;-45
2023/10/06 03:53:07;;;;;;;17.00;8.23;;;14.00;99.90;;;;;;5072437;28;20045;-46
2023/10/06 03:55:47;;;;;;;18.92;8.27;;;14.00;99.90;;;;;;5072413;28;20040;-45
2023/10/06 03:58:16;;;;;;;20.50;8.73;;;14.00;99.90;;;;;;5071428;28;20068;-46
2023/10/06 04:00:48;;;;;;;22.45;8.88;;;14.00;99.90;;;;;;5072119;28;20044;-45
2023/10/06 04:03:19;;;;;;;;;;;14.00;99.90;;;;;;5072694;28;20370;-46
2023/10/06 04:05:48;;;;;;;14.80;9.02;;;14.00;99.90;;;;;;5070794;28;19962;-48
2023/10/06 04:08:15;;;;;;;19.00;9.80;;;14.00;99.90;;;;;;5072381;28;20042;-46
2023/10/06 04:10:42;;;;;;;19.90;10.25;;;14.00;99.90;;;;;;5071968;28;20080;-48
2023/10/06 04:13:10;;;;;;;19.05;10.40;;;14.00;99.90;;;;;;5070761;28;20079;-47
2023/10/06 04:15:38;;;;;;;17.42;9.27;;;14.00;99.90;;;;;;5071972;28;20075;-59
2023/10/06 04:18:10;;;;;;;23.52;9.75;;;14.00;99.90;;;;;;5072050;28;20048;-59
2023/10/06 04:20:43;;;;;;;23.75;10.00;;;13.90;99.90;;;;;;5071845;28;20500;-59
2023/10/06 04:23:11;;;;;;;17.05;10.60;;;14.00;99.90;;;;;;5071865;28;20041;-59
2023/10/06 04:25:38;;;;;;;24.55;11.25;;;14.00;99.90;;;;;;5071886;28;20044;-59
2023/10/06 04:28:08;;;;;;;20.67;10.38;;;14.00;99.90;;;;;;5071859;28;20437;-58
2023/10/06 04:30:44;;;;;;;20.50;9.70;;;13.90;99.90;;;;;;5072052;28;20032;-59
2023/10/06 04:33:15;;;;;;;19.50;10.52;;;13.90;99.90;;;;;;5072170;28;20098;-59
2023/10/06 04:35:52;;;;;;;20.83;10.68;;;14.00;99.90;;;;;;5071711;28;20032;-59
2023/10/06 04:38:19;;;;;;;26.80;12.02;;;13.90;99.90;;;;;;5072103;28;20037;-58
2023/10/06 04:40:46;;;;;;;22.35;10.68;;;13.90;99.90;;;;;;5071827;28;20051;-59
2023/10/06 04:43:17;;;;;;;21.98;10.13;;;13.90;99.90;;;;;;5071709;28;20492;-59
2023/10/06 04:45:44;;;;;;;21.88;9.88;;;14.00;99.90;;;;;;5071883;28;20047;-59
2023/10/06 04:48:10;;;;;;;20.77;9.38;;;13.90;99.90;;;;;;5071591;28;20458;-59
2023/10/06 04:50:36;;;;;;;19.58;10.02;;;13.90;99.90;;;;;;5071856;28;20068;-59
2023/10/06 04:53:05;;;;;;;22.25;10.38;;;14.00;99.90;;;;;;5071544;28;20488;-59
2023/10/06 04:55:38;;;;;;;19.05;9.68;;;13.90;99.90;;;;;;5071808;28;20162;-59
2023/10/06 04:58:13;;;;;;;20.73;9.80;;;14.00;99.90;;;;;;5071458;28;20500;-59
2023/10/06 05:00:39;;;;;;;16.88;8.95;;;14.00;99.90;;;;;;5071444;28;20043;-47
2023/10/06 05:03:06;;;;;;;17.65;8.93;;;13.90;99.90;;;;;;5071218;28;20072;-46
2023/10/06 05:05:40;;;;;;;20.80;9.40;;;14.00;99.90;;;;;;5071310;28;20048;-49
2023/10/06 05:08:09;;;;;;;20.65;10.60;;;14.00;99.90;;;;;;5072160;28;20493;-45
2023/10/06 05:10:36;;;;;;;20.08;8.70;;;14.00;99.90;;;;;;5075039;28;20040;-45
2023/10/06 05:13:05;;;;;;;20.27;10.50;;;14.10;99.90;;;;;;5074030;28;20419;-48
2023/10/06 05:15:34;;;;;;;17.05;8.48;;;14.00;99.90;;;;;;5075020;28;20505;-49
2023/10/06 05:18:04;;;;;;;17.25;8.07;;;14.00;99.90;;;;;;5074044;28;20512;-59
2023/10/06 05:20:32;;;;;;;19.33;8.38;;;14.00;99.90;;;;;;5074955;28;20400;-59
2023/10/06 05:23:14;;;;;;;19.13;8.95;;;14.00;99.90;;;;;;5074882;28;20032;-59
2023/10/06 05:25:40;;;;;;;;;;;14.00;99.90;;;;;;5074919;28;20075;-59
2023/10/06 05:28:10;;;;;;;15.75;7.63;;;14.00;99.90;;;;;;5074877;28;19923;-47
2023/10/06 05:30:37;;;;;;;18.60;9.32;;;13.90;99.90;;;;;;5075209;28;20068;-46
2023/10/06 05:33:03;;;;;;;22.50;8.05;;;13.80;99.90;;;;;;5073567;28;20479;-46
2023/10/06 05:35:36;;;;;;;20.13;8.77;;;14.00;99.90;;;;;;5074871;28;20051;-59
2023/10/06 05:38:13;;;;;;;18.25;7.72;;;13.80;99.90;;;;;;5074762;28;20836;-58
2023/10/06 05:40:43;;;;;;;16.25;7.55;;;13.90;99.90;;;;;;5074864;28;20047;-58
2023/10/06 05:43:11;;;;;;;17.15;8.13;;;13.90;99.90;;;;;;5074738;28;20125;-59
2023/10/06 05:45:41;;;;;;;19.55;8.35;;;13.90;99.90;;;;;;5074769;28;20054;-59
2023/10/06 05:48:15;;;;;;;16.40;7.25;;;13.90;99.90;;;;;;5074046;28;20723;-59
2023/10/06 05:50:43;;;;;;;18.17;8.80;;;13.90;99.90;;;;;;5073471;28;20037;-49
2023/10/06 05:53:12;;;;;;;18.33;7.45;;;13.90;99.90;;;;;;5073845;28;20041;-49
2023/10/06 05:55:41;;;;;;;18.95;8.32;;;13.90;99.90;;;;;;5073713;28;20044;-59
2023/10/06 05:58:25;;;;;;;17.60;7.78;;;13.90;99.90;;;;;;5073646;28;20041;-59
2023/10/06 06:00:52;;;;;;;16.85;7.53;;;13.90;99.90;;;;;;5073519;28;20123;-59
2023/10/06 06:03:23;;;;;;;16.92;7.80;;;14.00;99.90;;;;;;5073141;28;20068;-59
2023/10/06 06:06:02;;;;;;;19.67;7.18;;;14.00;99.90;;;;;;5073476;28;20075;-47
2023/10/06 06:08:31;;;;;;;17.00;7.10;;;14.00;99.90;;;;;;5073465;28;20040;-46
2023/10/06 06:10:57;;;;;;;17.80;7.25;;;14.10;99.90;;;;;;5073086;28;20032;-46
2023/10/06 06:13:23;;;;;;;14.15;6.93;;;14.10;99.90;;;;;;5072012;28;20035;-46
2023/10/06 06:15:48;;;;;;;18.48;7.40;;;14.10;99.90;;;;;;5073205;28;20049;-47
2023/10/06 06:18:15;;;;;;;16.05;7.25;;;14.10;99.90;;;;;;5073306;28;20048;-59
2023/10/06 06:20:41;;;;;;;16.63;8.13;;;14.10;99.90;;;;;;5072451;28;20444;-49
2023/10/06 06:23:15;;;;;;;12.98;7.80;;;14.20;99.90;;;;;;5073020;28;20037;-45
2023/10/06 06:25:42;;;;;;;18.45;8.23;;;14.20;99.90;;;;;;5071546;28;20044;-46
2023/10/06 06:28:08;;;;;;;17.67;7.57;;;14.30;99.90;;;;;;5072738;28;20047;-59
2023/10/06 06:30:37;;;;;;;16.80;7.60;;;14.20;99.90;;;;;;5072966;28;20047;-59
2023/10/06 06:33:08;;;;;;;16.10;7.93;;;14.30;99.90;;;;;;5072721;28;20044;-59
2023/10/06 06:35:35;;;;;;;19.77;7.83;;;14.30;99.90;;;;;;5072997;28;20072;-46
2023/10/06 06:38:04;;;;;;;15.75;7.45;;;14.30;99.90;;;;;;5072788;28;20408;-48
2023/10/06 06:40:31;;;;;;;17.10;8.18;;;14.30;99.90;;;;;;5072767;28;20226;-46
2023/10/06 06:42:59;;;;;;;16.83;7.28;;;14.30;99.90;;;;;;5072785;28;20048;-46
2023/10/06 06:45:25;;;;;;;21.83;8.32;;;14.40;99.90;;;;;;5072879;28;20148;-46
2023/10/06 06:47:51;;;;;;;17.67;8.43;;;14.30;99.90;;;;;;5072524;28;20488;-48
2023/10/06 06:50:17;;;;;;;19.08;7.60;;;14.40;99.90;;;;;;5072347;28;20075;-47
2023/10/06 06:52:44;;;;;;;18.80;8.40;;;14.50;99.90;;;;;;5072503;28;20390;-60
2023/10/06 06:55:14;;;;;;;17.70;7.35;;;14.50;99.90;;;;;;5072109;28;20829;-59
2023/10/06 06:57:43;;;;;;;16.25;7.10;;;14.50;99.90;;;;;;5071327;28;20052;-59
2023/10/06 07:00:21;;;;;;;17.70;7.50;;;14.60;99.90;;;;;;5072665;28;20045;-58
2023/10/06 07:02:52;;;;;;;16.40;7.47;;;14.60;99.90;;;;;;5072389;28;20033;-47
2023/10/06 07:05:20;;;;;;;15.73;6.90;;;14.70;99.90;;;;;;5072614;28;20040;-46
2023/10/06 07:07:51;;;;;;;17.73;7.50;;;14.70;99.90;;;;;;5072383;28;20091;-45
2023/10/06 07:10:22;;;;;;;18.98;7.03;;;14.80;99.90;;;;;;5072476;28;20044;-46
2023/10/06 07:12:52;;;;;;;15.32;6.43;;;14.80;99.90;;;;;;5072057;28;20634;-59
2023/10/06 07:15:19;;;;;;;18.40;7.20;;;14.80;99.90;;;;;;5071750;28;20482;-59
2023/10/06 07:17:53;;;;;;;14.35;6.55;;;14.80;99.90;;;;;;5071895;28;20450;-59
2023/10/06 07:20:23;;;;;;;14.27;6.68;;;14.80;99.90;;;;;;5071913;28;20492;-59
2023/10/06 07:22:53;;;;;;;17.88;7.30;;;14.80;99.90;;;;;;5072150;28;20040;-59
2023/10/06 07:25:19;;;;;;;17.13;6.38;;;14.90;99.90;;;;;;5070525;28;20048;-59
2023/10/06 07:27:47;;;;;;;17.45;7.90;;;14.90;99.90;;;;;;5061298;28;20040;-59
2023/10/06 07:30:16;;;;;;;15.45;6.47;;;14.90;99.90;;;;;;5068215;28;20051;-59
2023/10/06 07:32:46;;;;;;;18.15;7.53;;;14.90;99.90;;;;;;5070718;28;20145;-59
2023/10/06 07:35:17;;;;;;;14.20;7.40;;;15.00;99.90;;;;;;5071966;28;20055;-59
2023/10/06 07:37:51;;;;;;;17.48;7.00;;;14.90;99.90;;;;;;5071878;28;20427;-59
2023/10/06 07:40:21;;;;;;;15.25;7.32;;;14.90;99.90;;;;;;5071721;28;20044;-58
2023/10/06 07:42:52;;;;;;;20.17;7.40;;;14.90;99.90;;;;;;5071728;28;20055;-46
2023/10/06 07:45:20;;;;;;;20.93;8.43;;;14.90;99.90;;;;;;5071871;28;20521;-46
2023/10/06 07:47:46;;;;;;;16.52;7.40;;;14.80;99.90;;;;;;5071203;28;20783;-48
2023/10/06 07:50:15;;;;;;;15.80;7.47;;;14.90;99.90;;;;;;5071587;28;20396;-58
2023/10/06 07:52:41;;;;;;;17.30;7.30;;;14.80;99.90;;;;;;5071584;28;20041;-59
2023/10/06 07:55:09;;;;;;;19.83;8.65;;;14.90;99.90;;;;;;5071526;28;20432;-59
2023/10/06 07:57:45;;;;;;;16.10;7.25;;;14.90;99.90;;;;;;5071416;28;20048;-59
2023/10/06 08:00:27;;;;;;;23.27;8.13;;;14.90;99.90;;;;;;5071589;28;20144;-59
2023/10/06 08:03:00;;;;;;;;;;;14.90;99.90;;;;;;5072417;28;20080;-59
2023/10/06 08:05:25;;;;;;;;;;;15.00;99.90;;;;;;5071193;28;20422;-59
2023/10/06 08:07:52;;;;;;;18.50;7.72;;;15.00;99.90;;;;;;5071058;28;19924;-59
2023/10/06 08:10:19;;;;;;;19.65;8.45;;;15.10;99.90;;;;;;5072017;28;20068;-59
2023/10/06 08:12:47;;;;;;;17.65;8.55;;;15.00;99.90;;;;;;5072274;28;20048;-59
2023/10/06 08:15:17;;;;;;;19.50;8.55;;;15.10;99.90;;;;;;5068827;28;20033;-58
2023/10/06 08:17:47;;;;;;;14.20;7.95;;;15.20;99.90;;;;;;5062105;28;20040;-59
2023/10/06 08:20:15;;;;;;;17.15;8.13;;;15.30;99.90;;;;;;5065834;28;20048;-59
2023/10/06 08:22:41;;;;;;;16.95;8.00;;;15.30;99.90;;;;;;5071492;28;20040;-59
2023/10/06 08:25:09;;;;;;;14.35;8.05;;;15.30;99.90;;;;;;5072139;28;20056;-59
2023/10/06 08:27:35;;;;;;;17.85;8.90;;;15.30;99.90;;;;;;5071965;28;20106;-59
2023/10/06 08:30:06;;;;;;;20.15;8.75;;;15.50;99.90;;;;;;5070832;28;20109;-59
2023/10/06 08:32:33;;;;;;;19.92;8.23;;;15.50;99.90;;;;;;5071345;28;20056;-59
2023/10/06 08:34:59;;;;;;;16.60;7.97;;;15.50;99.90;;;;;;5070384;28;20052;-59
2023/10/06 08:37:24;;;;;;;15.77;7.55;;;15.60;99.90;;;;;;5070335;28;20036;-59
2023/10/06 08:39:50;;;;;;;16.00;6.93;;;15.70;99.90;;;;;;5070841;28;20140;-59
2023/10/06 08:42:16;;;;;;;17.38;7.22;;;15.60;99.90;;;;;;5065893;28;20480;-59
2023/10/06 08:44:42;;;;;;;17.48;7.03;;;15.70;99.90;;;;;;5072790;28;20119;-50
2023/10/06 08:47:13;;;;;;;18.90;7.13;;;15.70;99.90;;;;;;5075838;28;20036;-51
2023/10/06 08:49:43;;;;;;;16.55;6.60;;;15.80;99.90;;;;;;5075689;28;20480;-46
2023/10/06 08:52:12;;;;;;;20.15;7.18;;;15.80;99.90;;;;;;5075709;28;20037;-46
2023/10/06 08:54:43;;;;;;;14.65;6.97;;;15.90;99.90;;;;;;5075955;28;20393;-46
2023/10/06 08:57:12;;;;;;;18.95;7.05;;;16.00;99.90;;;;;;5075412;28;20071;-45
2023/10/06 08:59:39;;;;;;;16.92;7.40;;;16.00;99.90;;;;;;5074368;28;20051;-46
2023/10/06 09:02:05;;;;;;;17.63;7.53;;;16.10;99.90;;;;;;5075556;28;20048;-47
2023/10/06 09:04:35;;;;;;;15.02;7.35;;;16.10;99.90;;;;;;5075626;28;20044;-46
2023/10/06 09:07:15;;;;;;;18.63;7.50;;;16.10;99.90;;;;;;5075509;28;20044;-47
2023/10/06 09:09:42;;;;;;;16.60;7.55;;;16.10;99.90;;;;;;5075550;28;20033;-45
2023/10/06 09:12:21;;;;;;;16.65;6.63;;;16.10;99.90;;;;;;5075474;28;20036;-46
2023/10/06 09:14:54;;;;;;;21.50;7.00;;;16.10;99.90;;;;;;5075030;28;20045;-46
2023/10/06 09:17:33;;;;;;;16.55;7.03;;;16.20;99.90;;;;;;5075251;28;20427;-47
2023/10/06 09:19:59;;;;;;;17.15;7.03;;;16.20;99.90;;;;;;5075145;28;20040;-46
2023/10/06 09:22:29;;;;;;;17.90;7.28;;;16.20;99.90;;;;;;5074992;28;20500;-47
2023/10/06 09:24:59;;;;;;;20.23;7.43;;;16.30;99.90;;;;;;5074919;28;20052;-48
2023/10/06 09:27:25;;;;;;;14.60;7.03;;;16.30;99.90;;;;;;5073710;28;20040;-48
2023/10/06 09:30:11;;;;;;;17.17;6.97;;;16.40;99.90;;;;;;5075220;28;20072;-47
2023/10/06 09:32:39;;;;;;;17.58;6.72;;;16.40;99.90;;;;;;5073509;28;20060;-46
2023/10/06 09:35:21;;;;;;;17.75;7.07;;;16.40;99.90;;;;;;5073870;28;20041;-45
2023/10/06 09:37:48;;;;;;;18.33;6.82;;;16.40;99.90;;;;;;5073950;28;20067;-46
2023/10/06 09:40:22;;;;;;;14.13;6.00;;;16.50;99.90;;;;;;5074525;28;20044;-45
2023/10/06 09:42:50;;;;;;;13.30;6.18;;;16.50;99.90;;;;;;5074660;28;20043;-45
2023/10/06 09:45:20;;;;;;;24.10;7.35;;;16.50;99.90;;;;;;5074861;28;20037;-59
2023/10/06 09:47:56;;;;;;;16.25;6.05;;;16.50;99.90;;;;;;5074794;28;20055;-59
2023/10/06 09:50:23;;;;;;;15.63;5.97;;;16.60;99.90;;;;;;5074352;28;20079;-59
2023/10/06 09:52:50;;;;;;;16.98;6.30;;;16.70;99.90;;;;;;5056555;28;20049;-58
2023/10/06 09:55:17;;;;;;;17.02;6.15;;;16.70;99.90;;;;;;5071883;28;20119;-58
2023/10/06 09:57:47;;;;;;;19.67;5.70;;;16.60;99.90;;;;;;5074473;28;20054;-59
2023/10/06 10:00:16;;;;;;;14.85;6.32;;;16.70;99.90;;;;;;5073089;28;20507;-58
2023/10/06 10:02:51;;;;;;;19.35;6.93;;;16.70;99.90;;;;;;5074269;28;20053;-59
2023/10/06 10:05:22;;;;;;;17.88;7.00;;;16.70;99.90;;;;;;5074277;28;20056;-59
2023/10/06 10:07:48;;;;;;;14.68;5.90;;;16.80;99.90;;;;;;5073893;28;20041;-59
2023/10/06 10:10:15;;;;;;;16.83;6.15;;;16.80;99.90;;;;;;5073891;28;20032;-59
2023/10/06 10:12:58;;;;;;;16.70;5.90;;;17.00;99.90;;;;;;5074107;28;20044;-59
2023/10/06 10:15:39;;;;;;;18.35;6.03;;;16.90;99.90;;;;;;5073816;28;20036;-59
2023/10/06 10:18:17;;;;;;;18.13;6.57;;;17.00;99.90;;;;;;5074035;28;20047;-59
2023/10/06 10:20:46;;;;;;;19.30;6.97;;;17.00;99.90;;;;;;5073661;28;20401;-59
2023/10/06 10:23:16;;;;;;;15.82;6.55;;;17.10;99.90;;;;;;5072622;28;20052;-59
2023/10/06 10:25:42;;;;;;;14.98;6.13;;;17.20;99.90;;;;;;5072168;28;20081;-59
2023/10/06 10:28:19;;;;;;;18.08;6.75;;;17.30;99.90;;;;;;5073631;28;20049;-59
2023/10/06 10:30:53;;;;;;;16.67;6.38;;;17.30;99.90;;;;;;5073771;28;20039;-59
2023/10/06 10:33:29;;;;;;;17.38;5.50;;;17.40;99.90;;;;;;5073493;28;20057;-59
2023/10/06 10:36:14;;;;;;;20.15;5.72;;;17.40;99.90;;;;;;5073657;28;20353;-59
2023/10/06 10:38:41;;;;;;;16.95;5.97;;;17.50;99.90;;;;;;5073491;28;20048;-59
2023/10/06 10:41:09;;;;;;;20.02;6.20;;;17.40;99.90;;;;;;5073864;28;20142;-59
2023/10/06 10:43:40;;;;;;;16.33;5.40;;;17.60;99.90;;;;;;5072287;28;20052;-46
2023/10/06 10:46:08;;;;;;;15.05;5.95;;;17.70;99.90;;;;;;5073604;28;20041;-47
2023/10/06 10:48:37;;;;;;;17.08;5.45;;;17.70;99.90;;;;;;5072736;28;20047;-45
2023/10/06 10:51:12;;;;;;;15.75;5.78;;;17.70;99.90;;;;;;5072745;28;20463;-47
2023/10/06 10:53:43;;;;;;;17.60;5.43;;;17.80;99.90;;;;;;5073311;28;20045;-46
2023/10/06 10:56:13;;;;;;;14.80;5.40;;;17.90;99.90;;;;;;5073055;28;20045;-45
2023/10/06 10:58:42;;;;;;;16.90;5.60;;;18.00;99.90;;;;;;5073256;28;20554;-49
2023/10/06 11:01:42;;;;;;;16.52;4.95;;;18.00;98.30;;;;;;5071803;28;20040;-46
2023/10/06 11:07:14;;;;;;;18.75;6.05;;;18.00;93.40;;;;;;5041558;28;20428;-47
2023/10/06 11:09:41;;;;;;;;;;;18.10;96.30;;;;;;5053677;28;20465;-47
2023/10/06 11:12:20;;;;;;;15.23;4.82;;;18.00;94.40;;;;;;5053072;28;19916;-45
2023/10/06 11:14:46;;;;;;;18.33;5.07;;;18.10;97.60;;;;;;5053061;28;20080;-46
2023/10/06 11:17:12;;;;;;;16.80;4.97;;;18.10;96.70;;;;;;5051692;28;20041;-47
2023/10/06 11:19:39;;;;;;;16.38;5.68;;;18.00;95.80;;;;;;5052639;28;20596;-48
2023/10/06 11:22:19;;;;;;;12.50;5.15;;;18.10;94.50;;;;;;5052982;28;20060;-47
2023/10/06 11:24:46;;;;;;;16.80;5.35;;;18.30;93.70;;;;;;5051705;28;20375;-47
2023/10/06 11:27:15;;;;;;;17.45;5.18;;;18.40;91.70;;;;;;5051030;28;20565;-46
2023/10/06 11:29:40;;;;;;;21.08;5.78;;;18.40;89.80;;;;;;5051211;28;20052;-46
2023/10/06 11:32:07;;;;;;;15.05;4.10;;;18.50;83.40;;;;;;5052129;28;20052;-46
2023/10/06 11:34:34;;;;;;;14.25;4.65;;;18.50;78.40;;;;;;5052069;28;20044;-49
2023/10/06 11:37:01;;;;;;;14.55;4.13;;;18.50;81.50;;;;;;5051960;28;20132;-46
2023/10/06 11:39:31;;;;;;;11.82;3.83;;;18.60;83.50;;;;;;5052273;28;20041;-47
2023/10/06 11:42:25;;;;;;;17.90;4.30;;;18.80;83.60;;;;;;5052277;28;20048;-49
2023/10/06 11:44:55;;;;;;;12.68;3.47;;;18.80;71.30;;;;;;5052297;28;20041;-50
2023/10/06 11:47:26;;;;;;;13.95;3.80;;;19.00;65.10;;;;;;5052241;28;20449;-46
2023/10/06 11:49:53;;;;;;;15.57;3.78;;;18.90;54.60;;;;;;5052203;28;20067;-45
2023/10/06 11:52:19;;;;;;;16.35;3.53;;;18.90;43.90;;;;;;5052424;28;20033;-46
2023/10/06 11:54:46;;;;;;;12.50;2.90;;;18.80;34.10;;;;;;5050900;28;20051;-46
2023/10/06 11:57:13;;;;;;;15.32;2.90;;;18.90;32.40;;;;;;5051854;28;20047;-47
2023/10/06 11:59:59;;;;;;;12.65;3.67;;;19.00;36.40;;;;;;5051741;28;20124;-59
2023/10/06 12:02:25;;;;;;;11.77;2.92;;;19.00;37.20;;;;;;5052016;28;20064;-59
2023/10/06 12:04:51;;;;;;;12.85;2.95;;;19.10;34.40;;;;;;5052002;28;20464;-59
2023/10/06 12:07:23;;;;;;;17.35;3.03;;;19.20;26.70;;;;;;5051791;28;20045;-59
2023/10/06 12:09:50;;;;;;;13.07;2.80;;;19.40;22.00;;;;;;5051791;28;20037;-60
2023/10/06 12:12:18;;;;;;;20.20;4.13;;;19.40;21.20;;;;;;5052047;28;20041;-59
2023/10/06 12:14:45;;;;;;;15.30;3.28;;;19.40;22.10;;;;;;5051919;28;20037;-59
2023/10/06 12:17:17;;;;;;;14.35;3.28;;;19.50;17.50;;;;;;5050972;28;20067;-59
2023/10/06 12:19:43;;;;;;;13.60;2.83;;;19.70;24.30;;;;;;5049981;28;20032;-59
2023/10/06 12:22:09;;;;;;;15.95;3.38;;;19.60;18.60;;;;;;5051333;28;20500;-59
2023/10/06 12:24:34;;;;;;;13.65;3.28;;;19.60;16.70;;;;;;5051691;28;20389;-48
2023/10/06 12:27:00;;;;;;;15.35;2.90;;;19.40;19.20;;;;;;5056272;28;20043;-50
2023/10/06 12:29:28;;;;;;;15.80;3.28;;;19.50;26.00;;;;;;5064148;28;20038;-48
2023/10/06 12:31:56;;;;;;;16.77;2.80;;;19.50;22.30;;;;;;5069755;28;20056;-46
2023/10/06 12:34:23;;;;;;;11.52;2.78;;;19.30;20.50;;;;;;5062896;28;20041;-46
2023/10/06 12:36:49;;;;;;;15.80;3.13;;;19.20;23.90;;;;;;5060081;28;20563;-47
2023/10/06 12:39:33;;;;;;;13.75;3.05;;;19.10;28.20;;;;;;5064926;28;20036;-46
2023/10/06 12:41:59;;;;;;;14.68;3.17;;;19.00;29.70;;;;;;5071470;28;20044;-48
2023/10/06 12:44:28;;;;;;;12.23;3.00;;;18.90;29.50;;;;;;5071862;28;20045;-47
2023/10/06 12:46:55;;;;;;;14.90;2.85;;;18.90;32.90;;;;;;5071606;28;20396;-47
2023/10/06 12:49:23;;;;;;;14.95;3.53;;;18.80;34.40;;;;;;5071700;28;20075;-47
2023/10/06 12:51:49;;;;;;;15.77;3.38;;;18.80;32.90;;;;;;5071311;28;20132;-49
2023/10/06 12:54:15;;;;;;;15.02;2.88;;;18.80;40.50;;;;;;5070949;28;20072;-48
2023/10/06 12:56:44;;;;;;;19.45;3.42;;;18.70;40.50;;;;;;5070138;28;20421;-46
2023/10/06 12:59:13;;;;;;;17.27;4.00;;;18.70;46.20;;;;;;5071013;28;20041;-50
2023/10/06 13:01:39;;;;;;;19.50;3.53;;;18.70;46.80;;;;;;5071242;28;20040;-47
2023/10/06 13:04:08;;;;;;;17.35;3.20;;;18.70;52.80;;;;;;5070150;28;20472;-46